Gran Bretagna — IBFB — position and weather

sailwx.info

Track history (hours):
 
Tides and Currents Weather Stations Pressure Air Temp Water Temp Dewpoint Dewpoint Depression Visibility Wind Speed Wind Dir Waves Ship Positions

Gran Bretagna

Last reported at 2018-Jun-19 16:00 UTC. Time now 2018-Jun-19 16:31 UTC.
Position N 38°31' W 008°52'.

Length 184 m; draft 8.4 m.

Type: Cargo ship. MMSI: 247290000.

Date/timePositionNaut miles runAvg speedWind from/ knotsBaromVisibWave heightAir tempDewpointWater temp
2018-Jun-19 16:00N 38°31' W 008°52'0 0.0
2018-Jun-19 15:30N 38°31' W 008°52'0 0.0
2018-Jun-19 15:00N 38°31' W 008°52'0 0.0
2018-Jun-19 14:30N 38°31' W 008°52'0 0.0
2018-Jun-19 14:00N 38°31' W 008°52'0 0.0
2018-Jun-19 13:30N 38°31' W 008°52'0 0.0
2018-Jun-19 13:00N 38°31' W 008°52'0 0.0
2018-Jun-19 12:30N 38°31' W 008°52'0 0.0
2018-Jun-19 12:00N 38°31' W 008°52'0 0.0
2018-Jun-19 11:30N 38°31' W 008°52'0 0.0
2018-Jun-19 11:00N 38°31' W 008°52'0 0.0
2018-Jun-19 10:30N 38°31' W 008°52'0 0.0
2018-Jun-19 10:00N 38°31' W 008°52'0 0.0
2018-Jun-19 09:30N 38°31' W 008°52'0 0.0
2018-Jun-19 09:00N 38°31' W 008°52'0 0.0
2018-Jun-19 08:30N 38°31' W 008°52'0 0.0
2018-Jun-19 07:57N 38°31' W 008°52'0 0.0
2018-Jun-19 07:30N 38°31' W 008°52'0 0.0
2018-Jun-19 07:00N 38°31' W 008°52'0 0.4
2018-Jun-19 06:30N 38°30' W 008°52'2 3.7
2018-Jun-19 06:00N 38°31' W 008°54'510.5
2018-Jun-19 05:30N 38°27' W 008°59'2 4.7
2018-Jun-19 05:00N 38°25' W 008°59'1 1.1
2018-Jun-19 04:30N 38°25' W 009°00'4 8.8
2018-Jun-19 04:00N 38°20' W 009°00'714.5
2018-Jun-19 03:31N 38°13' W 009°03'815.3
2018-Jun-19 03:01N 38°06' W 009°04'815.9
2018-Jun-19 02:31N 37°58' W 009°06'816.2
2018-Jun-19 02:01N 37°50' W 009°08'815.7
2018-Jun-19 01:30N 37°42' W 009°09'815.7
2018-Jun-19 01:01N 37°34' W 009°11'815.8
2018-Jun-19 00:31N 37°27' W 009°13'816.0
2018-Jun-19 00:01N 37°19' W 009°15'816.1
2018-Jun-18 23:31N 37°11' W 009°17'815.5
2018-Jun-18 23:00N 37°03' W 009°19'1214.7
2018-Jun-18 22:11N 36°52' W 009°16'316.1
2018-Jun-18 22:00N 36°50' W 009°13'815.3
2018-Jun-18 21:29N 36°45' W 009°05'715.9
2018-Jun-18 21:00N 36°42' W 008°56'4016.1
2018-Jun-18 18:32N 36°29' W 008°09'015.5
2018-Jun-18 18:30N 36°29' W 008°08'815.7
2018-Jun-18 17:59N 36°27' W 007°59'2316.0
2018-Jun-18 16:34N 36°20' W 007°32'415.6
2018-Jun-18 16:19N 36°19' W 007°27'716.1
2018-Jun-18 15:53N 36°17' W 007°19'815.6
2018-Jun-18 15:24N 36°15' W 007°10'716.0
2018-Jun-18 14:59N 36°12' W 007°02'7016.0
2018-Jun-18 10:37N 35°58' W 005°38'216.4
2018-Jun-18 10:30N 35°59' W 005°36'815.9
2018-Jun-18 10:01N 36°00' W 005°26'815.4
2018-Jun-18 09:31N 36°02' W 005°17'19215.7
2018-Jun-17 21:14N 36°37' W 001°22'415.1
2018-Jun-17 21:00N 36°38' W 001°18'1115.5
2018-Jun-17 20:17N 36°41' W 001°05'516.0
2018-Jun-17 20:00N 36°42' W 000°59'815.8
2018-Jun-17 19:30N 36°43' W 000°50'815.6
2018-Jun-17 19:00N 36°45' W 000°40'815.7
2018-Jun-17 18:30N 36°47' W 000°30'815.8
2018-Jun-17 18:00N 36°49' W 000°21'815.9
2018-Jun-17 17:31N 36°51' W 000°12'816.0
2018-Jun-17 17:01N 36°53' W 000°02'816.1
2018-Jun-17 16:30N 36°55' E 000°08'816.0
2018-Jun-17 16:00N 36°57' E 000°18'816.0
2018-Jun-17 15:29N 36°59' E 000°28'816.0
2018-Jun-17 15:00N 37°00' E 000°37'815.9
2018-Jun-17 14:30N 37°02' E 000°47'816.4
2018-Jun-17 14:00N 37°04' E 000°57'916.8
2018-Jun-17 13:30N 37°06' E 001°07'816.8
2018-Jun-17 13:00N 37°08' E 001°18'916.7
2018-Jun-17 12:29N 37°10' E 001°28'816.5
2018-Jun-17 12:00N 37°12' E 001°38'816.6
2018-Jun-17 11:30N 37°15' E 001°48'816.5
2018-Jun-17 11:00N 37°17' E 001°58'916.4
2018-Jun-17 10:29N 37°19' E 002°08'816.5
2018-Jun-17 10:01N 37°21' E 002°18'816.5
2018-Jun-17 09:30N 37°23' E 002°28'816.3
2018-Jun-17 09:01N 37°25' E 002°38'815.6
2018-Jun-17 08:29N 37°27' E 002°48'815.7
2018-Jun-17 08:00N 37°29' E 002°57'815.8
2018-Jun-17 07:30N 37°31' E 003°07'915.7
2018-Jun-17 06:57N 37°33' E 003°17'716.0
2018-Jun-17 06:30N 37°34' E 003°26'816.4
2018-Jun-17 06:00N 37°36' E 003°36'816.7
2018-Jun-17 05:30N 37°38' E 003°46'816.5
2018-Jun-17 05:00N 37°40' E 003°57'4416.5
2018-Jun-17 02:20N 37°51' E 004°51'716.7
2018-Jun-17 01:56N 37°52' E 004°59'716.7
2018-Jun-17 01:30N 37°54' E 005°08'816.6
2018-Jun-17 01:00N 37°56' E 005°18'816.5
2018-Jun-17 00:30N 37°59' E 005°28'1116.7
2018-Jun-16 23:49N 38°01' E 005°42'40216.4
2018-Jun-15 23:17N 40°20' E 013°48'617.2
2018-Jun-15 22:58N 40°22' E 013°55'817.2
2018-Jun-15 22:31N 40°25' E 014°04'917.1
2018-Jun-15 22:00N 40°28' E 014°15'817.0
2018-Jun-15 21:31N 40°31' E 014°25'917.2
2018-Jun-15 21:01N 40°35' E 014°36'6 0.4
2018-Jun-15 04:24N 40°37' E 014°43'411.2
2018-Jun-15 04:00N 40°33' E 014°43'1017.9
2018-Jun-15 03:28N 40°23' E 014°43'9918.3
2018-Jun-14 22:03N 38°51' E 015°34'218.5
2018-Jun-14 21:57N 38°50' E 015°35'818.6
2018-Jun-14 21:30N 38°43' E 015°40'918.6
2018-Jun-14 21:01N 38°35' E 015°46'917.5
2018-Jun-14 20:30N 38°27' E 015°52'2 0.1
2018-Jun-13 14:08N 38°28' E 015°55'0 0.4
2018-Jun-13 13:55N 38°28' E 015°55'3 4.4
2018-Jun-13 13:20N 38°27' E 015°52'2 5.7
2018-Jun-13 12:59N 38°26' E 015°50'714.9
2018-Jun-13 12:30N 38°20' E 015°46'815.3
2018-Jun-13 12:00N 38°15' E 015°39'713.9
2018-Jun-13 11:30N 38°08' E 015°36'713.9
2018-Jun-13 11:00N 38°01' E 015°36'814.8
2018-Jun-13 10:29N 37°54' E 015°40'815.6
2018-Jun-13 10:00N 37°51' E 015°49'816.0
2018-Jun-13 09:31N 37°48' E 015°58'816.0
2018-Jun-13 09:00N 37°45' E 016°07'  
2018-Jun-10 21:02N 32°19' E 033°14'315.0
2018-Jun-10 20:51N 32°18' E 033°17'515.2
2018-Jun-10 20:30N 32°16' E 033°23'815.3
2018-Jun-10 20:00N 32°13' E 033°31'1015.5
2018-Jun-10 19:22N 32°10' E 033°42'615.5
2018-Jun-10 19:00N 32°07' E 033°48'815.6
2018-Jun-10 18:30N 32°05' E 033°56'815.5
2018-Jun-10 17:59N 32°02' E 034°05'715.5
2018-Jun-10 17:30N 31°59' E 034°13'815.5
2018-Jun-10 17:00N 31°56' E 034°22'815.5
2018-Jun-10 16:30N 31°53' E 034°31'714.2
2018-Jun-10 16:00N 31°51' E 034°38'1 0.5
2018-Jun-10 13:30N 31°50' E 034°39'0 0.0
2018-Jun-10 12:57N 31°50' E 034°39'0 0.0
2018-Jun-10 10:24N 31°50' E 034°39'0 0.0
2018-Jun-10 10:00N 31°50' E 034°39'0 0.0
2018-Jun-10 09:30N 31°50' E 034°39'0 0.0
2018-Jun-10 00:42N 31°50' E 034°39'0 0.0
2018-Jun-10 00:27N 31°50' E 034°39'0 0.0
2018-Jun-09 23:57N 31°50' E 034°39'0 0.0
2018-Jun-09 23:30N 31°50' E 034°39'0 0.0
2018-Jun-09 23:00N 31°50' E 034°39'0 0.0
2018-Jun-09 22:00N 31°50' E 034°39'0 0.0
2018-Jun-09 21:30N 31°50' E 034°39'0 0.0
2018-Jun-09 20:21N 31°50' E 034°39'0 0.0
2018-Jun-09 20:00N 31°50' E 034°39'0 0.0
2018-Jun-09 19:30N 31°50' E 034°39'  
Track history (hours):
 
Tides and Currents Weather Stations Pressure Air Temp Water Temp Dewpoint Dewpoint Depression Visibility Wind Speed Wind Dir Waves Ship Positions

Gran Bretagna

Last reported at 2018-Jun-19 16:00 UTC. Time now 2018-Jun-19 16:31 UTC.
Position N 38°31' W 008°52'.

Length 184 m; draft 8.4 m.

Type: Cargo ship. MMSI: 247290000.

Date/timePositionNaut miles runAvg speedWind from/ knotsBaromVisibWave heightAir tempDewpointWater temp
2018-Jun-19 16:00N 38°31' W 008°52'0 0.0
2018-Jun-19 15:30N 38°31' W 008°52'0 0.0
2018-Jun-19 15:00N 38°31' W 008°52'0 0.0
2018-Jun-19 14:30N 38°31' W 008°52'0 0.0
2018-Jun-19 14:00N 38°31' W 008°52'0 0.0
2018-Jun-19 13:30N 38°31' W 008°52'0 0.0
2018-Jun-19 13:00N 38°31' W 008°52'0 0.0
2018-Jun-19 12:30N 38°31' W 008°52'0 0.0
2018-Jun-19 12:00N 38°31' W 008°52'0 0.0
2018-Jun-19 11:30N 38°31' W 008°52'0 0.0
2018-Jun-19 11:00N 38°31' W 008°52'0 0.0
2018-Jun-19 10:30N 38°31' W 008°52'0 0.0
2018-Jun-19 10:00N 38°31' W 008°52'0 0.0
2018-Jun-19 09:30N 38°31' W 008°52'0 0.0
2018-Jun-19 09:00N 38°31' W 008°52'0 0.0
2018-Jun-19 08:30N 38°31' W 008°52'0 0.0
2018-Jun-19 07:57N 38°31' W 008°52'0 0.0
2018-Jun-19 07:30N 38°31' W 008°52'0 0.0
2018-Jun-19 07:00N 38°31' W 008°52'0 0.4
2018-Jun-19 06:30N 38°30' W 008°52'2 3.7
2018-Jun-19 06:00N 38°31' W 008°54'510.5
2018-Jun-19 05:30N 38°27' W 008°59'2 4.7
2018-Jun-19 05:00N 38°25' W 008°59'1 1.1
2018-Jun-19 04:30N 38°25' W 009°00'4 8.8
2018-Jun-19 04:00N 38°20' W 009°00'714.5
2018-Jun-19 03:31N 38°13' W 009°03'815.3
2018-Jun-19 03:01N 38°06' W 009°04'815.9
2018-Jun-19 02:31N 37°58' W 009°06'816.2
2018-Jun-19 02:01N 37°50' W 009°08'815.7
2018-Jun-19 01:30N 37°42' W 009°09'815.7
2018-Jun-19 01:01N 37°34' W 009°11'815.8
2018-Jun-19 00:31N 37°27' W 009°13'816.0
2018-Jun-19 00:01N 37°19' W 009°15'816.1
2018-Jun-18 23:31N 37°11' W 009°17'815.5
2018-Jun-18 23:00N 37°03' W 009°19'1214.7
2018-Jun-18 22:11N 36°52' W 009°16'316.1
2018-Jun-18 22:00N 36°50' W 009°13'815.3
2018-Jun-18 21:29N 36°45' W 009°05'715.9
2018-Jun-18 21:00N 36°42' W 008°56'4016.1
2018-Jun-18 18:32N 36°29' W 008°09'015.5
2018-Jun-18 18:30N 36°29' W 008°08'815.7
2018-Jun-18 17:59N 36°27' W 007°59'2316.0
2018-Jun-18 16:34N 36°20' W 007°32'415.6
2018-Jun-18 16:19N 36°19' W 007°27'716.1
2018-Jun-18 15:53N 36°17' W 007°19'815.6
2018-Jun-18 15:24N 36°15' W 007°10'716.0
2018-Jun-18 14:59N 36°12' W 007°02'7016.0
2018-Jun-18 10:37N 35°58' W 005°38'216.4
2018-Jun-18 10:30N 35°59' W 005°36'815.9
2018-Jun-18 10:01N 36°00' W 005°26'815.4
2018-Jun-18 09:31N 36°02' W 005°17'19215.7
2018-Jun-17 21:14N 36°37' W 001°22'415.1
2018-Jun-17 21:00N 36°38' W 001°18'1115.5
2018-Jun-17 20:17N 36°41' W 001°05'516.0
2018-Jun-17 20:00N 36°42' W 000°59'815.8
2018-Jun-17 19:30N 36°43' W 000°50'815.6
2018-Jun-17 19:00N 36°45' W 000°40'815.7
2018-Jun-17 18:30N 36°47' W 000°30'815.8
2018-Jun-17 18:00N 36°49' W 000°21'815.9
2018-Jun-17 17:31N 36°51' W 000°12'816.0
2018-Jun-17 17:01N 36°53' W 000°02'816.1
2018-Jun-17 16:30N 36°55' E 000°08'816.0
2018-Jun-17 16:00N 36°57' E 000°18'816.0
2018-Jun-17 15:29N 36°59' E 000°28'816.0
2018-Jun-17 15:00N 37°00' E 000°37'815.9
2018-Jun-17 14:30N 37°02' E 000°47'816.4
2018-Jun-17 14:00N 37°04' E 000°57'916.8
2018-Jun-17 13:30N 37°06' E 001°07'816.8
2018-Jun-17 13:00N 37°08' E 001°18'916.7
2018-Jun-17 12:29N 37°10' E 001°28'816.5
2018-Jun-17 12:00N 37°12' E 001°38'816.6
2018-Jun-17 11:30N 37°15' E 001°48'816.5
2018-Jun-17 11:00N 37°17' E 001°58'916.4
2018-Jun-17 10:29N 37°19' E 002°08'816.5
2018-Jun-17 10:01N 37°21' E 002°18'816.5
2018-Jun-17 09:30N 37°23' E 002°28'816.3
2018-Jun-17 09:01N 37°25' E 002°38'815.6
2018-Jun-17 08:29N 37°27' E 002°48'815.7
2018-Jun-17 08:00N 37°29' E 002°57'815.8
2018-Jun-17 07:30N 37°31' E 003°07'915.7
2018-Jun-17 06:57N 37°33' E 003°17'716.0
2018-Jun-17 06:30N 37°34' E 003°26'816.4
2018-Jun-17 06:00N 37°36' E 003°36'816.7
2018-Jun-17 05:30N 37°38' E 003°46'816.5
2018-Jun-17 05:00N 37°40' E 003°57'4416.5
2018-Jun-17 02:20N 37°51' E 004°51'716.7
2018-Jun-17 01:56N 37°52' E 004°59'716.7
2018-Jun-17 01:30N 37°54' E 005°08'816.6
2018-Jun-17 01:00N 37°56' E 005°18'816.5
2018-Jun-17 00:30N 37°59' E 005°28'1116.7
2018-Jun-16 23:49N 38°01' E 005°42'40216.4
2018-Jun-15 23:17N 40°20' E 013°48'617.2
2018-Jun-15 22:58N 40°22' E 013°55'817.2
2018-Jun-15 22:31N 40°25' E 014°04'917.1
2018-Jun-15 22:00N 40°28' E 014°15'817.0
2018-Jun-15 21:31N 40°31' E 014°25'917.2
2018-Jun-15 21:01N 40°35' E 014°36'6 0.4
2018-Jun-15 04:24N 40°37' E 014°43'411.2
2018-Jun-15 04:00N 40°33' E 014°43'1017.9
2018-Jun-15 03:28N 40°23' E 014°43'9918.3
2018-Jun-14 22:03N 38°51' E 015°34'218.5
2018-Jun-14 21:57N 38°50' E 015°35'818.6
2018-Jun-14 21:30N 38°43' E 015°40'918.6
2018-Jun-14 21:01N 38°35' E 015°46'917.5
2018-Jun-14 20:30N 38°27' E 015°52'2 0.1
2018-Jun-13 14:08N 38°28' E 015°55'0 0.4
2018-Jun-13 13:55N 38°28' E 015°55'3 4.4
2018-Jun-13 13:20N 38°27' E 015°52'2 5.7
2018-Jun-13 12:59N 38°26' E 015°50'714.9
2018-Jun-13 12:30N 38°20' E 015°46'815.3
2018-Jun-13 12:00N 38°15' E 015°39'713.9
2018-Jun-13 11:30N 38°08' E 015°36'713.9
2018-Jun-13 11:00N 38°01' E 015°36'814.8
2018-Jun-13 10:29N 37°54' E 015°40'815.6
2018-Jun-13 10:00N 37°51' E 015°49'816.0
2018-Jun-13 09:31N 37°48' E 015°58'816.0
2018-Jun-13 09:00N 37°45' E 016°07'  
2018-Jun-10 21:02N 32°19' E 033°14'315.0
2018-Jun-10 20:51N 32°18' E 033°17'515.2
2018-Jun-10 20:30N 32°16' E 033°23'815.3
2018-Jun-10 20:00N 32°13' E 033°31'1015.5
2018-Jun-10 19:22N 32°10' E 033°42'615.5
2018-Jun-10 19:00N 32°07' E 033°48'815.6
2018-Jun-10 18:30N 32°05' E 033°56'815.5
2018-Jun-10 17:59N 32°02' E 034°05'715.5
2018-Jun-10 17:30N 31°59' E 034°13'815.5
2018-Jun-10 17:00N 31°56' E 034°22'815.5
2018-Jun-10 16:30N 31°53' E 034°31'714.2
2018-Jun-10 16:00N 31°51' E 034°38'1 0.5
2018-Jun-10 13:30N 31°50' E 034°39'0 0.0
2018-Jun-10 12:57N 31°50' E 034°39'0 0.0
2018-Jun-10 10:24N 31°50' E 034°39'0 0.0
2018-Jun-10 10:00N 31°50' E 034°39'0 0.0
2018-Jun-10 09:30N 31°50' E 034°39'0 0.0
2018-Jun-10 00:42N 31°50' E 034°39'0 0.0
2018-Jun-10 00:27N 31°50' E 034°39'0 0.0
2018-Jun-09 23:57N 31°50' E 034°39'0 0.0
2018-Jun-09 23:30N 31°50' E 034°39'0 0.0
2018-Jun-09 23:00N 31°50' E 034°39'0 0.0
2018-Jun-09 22:00N 31°50' E 034°39'0 0.0
2018-Jun-09 21:30N 31°50' E 034°39'0 0.0
2018-Jun-09 20:21N 31°50' E 034°39'0 0.0
2018-Jun-09 20:00N 31°50' E 034°39'0 0.0
2018-Jun-09 19:30N 31°50' E 034°39'  

Dump ship's entire track history